Time;durP1;ratioP1;P1;durP2;ratioP2;P2;SDS_P1;SDS_P2;PMS_P1;PMS_P2;Temp;Humidity;BMP_temperature;BMP_pressure;BME280_temperature;BME280_humidity;BME280_pressure;Samples;Min_cycle;Max_cycle;Signal;HPM_P1;HPM_P2
2022/03/12 00:01:13;;;;;;;14.80;8.77;;;6.90;61.30;;;;;;5027704;28;20584;-57
2022/03/12 00:03:40;;;;;;;18.15;8.88;;;6.80;61.60;;;;;;5019370;28;20074;-58
2022/03/12 00:06:07;;;;;;;13.80;9.10;;;6.80;61.70;;;;;;5040565;28;20657;-58
2022/03/12 00:08:44;;;;;;;17.27;9.27;;;6.80;61.70;;;;;;5027554;28;20172;-58
2022/03/12 00:11:28;;;;;;;17.63;8.90;;;6.80;62.00;;;;;;5028681;28;20033;-57
2022/03/12 00:13:57;;;;;;;16.45;8.88;;;6.80;62.40;;;;;;5036088;28;20645;-58
2022/03/12 00:16:23;;;;;;;16.83;9.32;;;6.80;62.80;;;;;;5031344;28;20052;-57
2022/03/12 00:18:55;;;;;;;16.52;8.93;;;6.80;62.80;;;;;;5029990;28;20514;-57
2022/03/12 00:21:22;;;;;;;;;;;6.80;63.00;;;;;;5023605;28;20041;-58
2022/03/12 00:23:50;;;;;;;16.17;8.55;;;6.80;63.70;;;;;;5022471;28;19929;-59
2022/03/12 00:26:18;;;;;;;18.38;9.00;;;6.80;62.70;;;;;;5048991;28;20248;-57
2022/03/12 00:28:45;;;;;;;14.93;8.95;;;6.90;63.50;;;;;;5030377;28;20073;-58
2022/03/12 00:31:11;;;;;;;14.90;8.88;;;6.80;63.60;;;;;;5042901;28;20108;-58
2022/03/12 00:33:38;;;;;;;18.10;9.13;;;6.90;62.80;;;;;;5050509;28;20561;-58
2022/03/12 00:36:04;;;;;;;17.88;8.95;;;6.90;62.70;;;;;;5037430;28;20063;-58
2022/03/12 00:38:30;;;;;;;18.38;10.07;;;6.90;62.50;;;;;;5033630;28;20037;-58
2022/03/12 00:40:55;;;;;;;17.00;9.20;;;6.90;62.60;;;;;;5042387;28;20418;-58
2022/03/12 00:43:22;;;;;;;16.88;8.57;;;6.90;62.80;;;;;;5042849;28;20025;-57
2022/03/12 00:45:49;;;;;;;17.00;8.95;;;7.00;62.80;;;;;;5035383;28;20038;-57
2022/03/12 00:48:16;;;;;;;14.88;9.18;;;6.90;62.70;;;;;;5042103;28;20033;-57
2022/03/12 00:50:42;;;;;;;14.48;8.90;;;6.90;62.90;;;;;;5046586;28;20052;-58
2022/03/12 00:53:07;;;;;;;16.55;9.52;;;6.90;63.20;;;;;;5035851;28;20028;-58
2022/03/12 00:55:34;;;;;;;15.63;8.88;;;6.90;63.40;;;;;;5041931;28;20682;-58
2022/03/12 00:57:59;;;;;;;15.10;9.05;;;6.90;63.20;;;;;;5030635;28;20099;-57
2022/03/12 01:00:26;;;;;;;20.33;9.70;;;6.90;63.40;;;;;;5022739;28;20042;-58
2022/03/12 01:02:52;;;;;;;15.57;9.63;;;6.90;63.40;;;;;;5039256;28;20111;-58
2022/03/12 01:05:22;;;;;;;17.42;9.70;;;6.90;64.00;;;;;;5041678;28;20674;-58
2022/03/12 01:07:48;;;;;;;15.40;9.00;;;6.80;64.00;;;;;;5050771;28;20047;-57
2022/03/12 01:10:14;;;;;;;17.50;9.60;;;6.80;65.00;;;;;;5035803;28;20513;-58
2022/03/12 01:12:40;;;;;;;14.35;9.27;;;6.80;65.40;;;;;;5025308;28;20045;-58
2022/03/12 01:15:06;;;;;;;14.75;9.25;;;6.80;66.60;;;;;;5029780;28;20038;-58
2022/03/12 01:17:33;;;;;;;15.55;9.25;;;6.80;65.90;;;;;;5023319;28;20042;-58
2022/03/12 01:20:00;;;;;;;16.98;9.25;;;6.80;66.60;;;;;;5040851;28;20091;-58
2022/03/12 01:22:29;;;;;;;16.02;9.30;;;6.80;65.60;;;;;;5029876;28;20083;-58
2022/03/12 01:24:55;;;;;;;15.00;9.60;;;6.90;65.40;;;;;;5007839;28;20497;-58
2022/03/12 01:27:20;;;;;;;16.83;8.60;;;7.00;64.60;;;;;;5028209;28;20036;-58
2022/03/12 01:29:46;;;;;;;16.27;9.70;;;7.00;63.40;;;;;;5041498;28;20044;-58
2022/03/12 01:32:11;;;;;;;18.38;9.60;;;7.10;62.80;;;;;;5040150;28;20072;-58
2022/03/12 01:34:37;;;;;;;14.77;9.15;;;7.20;62.70;;;;;;5017370;28;20045;-58
2022/03/12 01:37:04;;;;;;;14.93;8.98;;;7.20;62.00;;;;;;5035115;28;20040;-58
2022/03/12 01:39:29;;;;;;;15.43;9.65;;;7.30;61.30;;;;;;5029799;28;20120;-58
2022/03/12 01:41:55;;;;;;;13.20;8.60;;;7.30;61.80;;;;;;5029761;28;20116;-58
2022/03/12 01:44:22;;;;;;;17.00;9.60;;;7.30;61.90;;;;;;5032226;28;20086;-58
2022/03/12 01:46:49;;;;;;;16.33;9.15;;;7.20;62.20;;;;;;5040361;28;20489;-58
2022/03/12 01:49:23;;;;;;;14.50;8.65;;;7.20;62.00;;;;;;5049611;28;20045;-58
2022/03/12 01:51:52;;;;;;;14.38;9.30;;;7.10;63.10;;;;;;5029859;28;20037;-58
2022/03/12 01:54:24;;;;;;;17.13;9.25;;;7.10;62.90;;;;;;5019682;28;20495;-58
2022/03/12 01:56:53;;;;;;;17.08;9.05;;;7.00;63.20;;;;;;5029284;28;20082;-58
2022/03/12 01:59:19;;;;;;;17.50;9.68;;;7.10;63.60;;;;;;5017864;28;20037;-58
2022/03/12 02:01:51;;;;;;;17.15;9.80;;;7.00;63.60;;;;;;5017935;28;20771;-58
2022/03/12 02:04:17;;;;;;;;;;;7.00;63.60;;;;;;5043484;28;20037;-58
2022/03/12 02:06:45;;;;;;;15.52;9.07;;;7.00;64.50;;;;;;5034717;28;19918;-58
2022/03/12 02:09:15;;;;;;;16.60;9.88;;;6.90;65.20;;;;;;5030101;28;20098;-58
2022/03/12 02:11:45;;;;;;;18.80;9.60;;;6.90;65.20;;;;;;5040677;28;20085;-58
2022/03/12 02:14:16;;;;;;;21.95;9.40;;;6.90;65.40;;;;;;5070723;22;20805;-57
2022/03/12 02:17:02;;;;;;;17.42;9.57;;;6.90;65.40;;;;;;5045971;28;20040;-57
2022/03/12 02:19:30;;;;;;;20.95;9.95;;;6.80;65.60;;;;;;5039353;28;20491;-58
2022/03/12 02:22:00;;;;;;;16.42;9.70;;;6.90;65.60;;;;;;5028356;28;20655;-58
2022/03/12 02:24:33;;;;;;;17.30;9.20;;;6.90;65.50;;;;;;5042328;28;20040;-58
2022/03/12 02:27:01;;;;;;;18.08;9.50;;;6.90;65.10;;;;;;5054467;28;20029;-58
2022/03/12 02:29:27;;;;;;;21.30;9.48;;;6.90;66.80;;;;;;5040594;28;20159;-58
2022/03/12 02:31:58;;;;;;;15.38;9.20;;;6.90;66.20;;;;;;5057699;28;20398;-58
2022/03/12 02:34:44;;;;;;;17.77;9.75;;;6.90;66.30;;;;;;5059850;28;20075;-58
2022/03/12 02:37:11;;;;;;;15.88;9.45;;;6.90;67.10;;;;;;5065622;28;20052;-57
2022/03/12 02:39:38;;;;;;;15.95;9.32;;;6.80;67.10;;;;;;5048582;28;20518;-57
2022/03/12 02:42:08;;;;;;;19.45;10.13;;;6.80;67.40;;;;;;5050689;28;20131;-58
2022/03/12 02:44:34;;;;;;;15.80;8.65;;;6.80;66.90;;;;;;5056274;28;20116;-58
2022/03/12 02:47:22;;;;;;;19.00;10.25;;;6.80;67.20;;;;;;5068251;28;20565;-58
2022/03/12 02:49:59;;;;;;;16.15;9.50;;;6.80;68.10;;;;;;5046251;28;20037;-58
2022/03/12 02:52:27;;;;;;;16.35;10.25;;;6.70;68.70;;;;;;5058999;28;20762;-58
2022/03/12 02:54:55;;;;;;;16.08;10.10;;;6.70;68.60;;;;;;5066951;28;20032;-58
2022/03/12 02:57:24;;;;;;;18.08;9.45;;;6.70;68.80;;;;;;5044822;28;20060;-58
2022/03/12 02:59:52;;;;;;;16.60;9.65;;;6.70;69.10;;;;;;5061866;28;20040;-58
2022/03/12 03:02:18;;;;;;;16.33;10.10;;;6.70;69.10;;;;;;5050277;28;20448;-59
2022/03/12 03:04:45;;;;;;;18.17;9.57;;;6.60;70.20;;;;;;5065383;28;20036;-58
2022/03/12 03:07:12;;;;;;;15.82;9.43;;;6.70;70.00;;;;;;5033737;28;20116;-57
2022/03/12 03:09:38;;;;;;;18.70;9.65;;;6.70;70.50;;;;;;5056511;28;20112;-58
2022/03/12 03:12:09;;;;;;;21.33;9.98;;;6.70;70.30;;;;;;5068146;28;20036;-58
2022/03/12 03:14:36;;;;;;;14.73;9.60;;;6.60;70.80;;;;;;5044041;28;20083;-58
2022/03/12 03:17:04;;;;;;;17.42;9.43;;;6.60;71.40;;;;;;5048094;28;20325;-58
2022/03/12 03:19:30;;;;;;;13.75;9.25;;;6.60;71.40;;;;;;5063641;28;20068;-58
2022/03/12 03:21:57;;;;;;;17.98;9.43;;;6.60;71.90;;;;;;5045065;28;20044;-58
2022/03/12 03:24:24;;;;;;;15.15;9.32;;;6.60;72.20;;;;;;5042221;28;20036;-57
2022/03/12 03:26:53;;;;;;;17.55;10.02;;;6.50;72.50;;;;;;5059086;28;20044;-58
2022/03/12 03:29:21;;;;;;;14.55;9.32;;;6.50;73.30;;;;;;5048076;28;20103;-57
2022/03/12 03:31:48;;;;;;;14.23;9.18;;;6.50;73.70;;;;;;5028643;28;20033;-57
2022/03/12 03:34:14;;;;;;;16.77;9.57;;;6.40;74.80;;;;;;5055735;28;20043;-57
2022/03/12 03:36:41;;;;;;;20.15;9.88;;;6.40;74.90;;;;;;5064740;28;20451;-57
2022/03/12 03:39:06;;;;;;;15.43;9.48;;;6.40;75.60;;;;;;5055591;28;20037;-57
2022/03/12 03:41:33;;;;;;;18.23;9.35;;;6.30;77.10;;;;;;5058757;28;20449;-58
2022/03/12 03:43:59;;;;;;;15.80;9.10;;;6.20;76.90;;;;;;5059034;28;20045;-58
2022/03/12 03:46:24;;;;;;;16.80;9.68;;;6.20;77.90;;;;;;5063225;28;20032;-57
2022/03/12 03:48:52;;;;;;;14.88;8.95;;;6.00;80.80;;;;;;5044601;28;20030;-58
2022/03/12 03:51:19;;;;;;;15.23;9.70;;;6.00;81.50;;;;;;5062888;28;20028;-58
2022/03/12 03:53:45;;;;;;;16.00;9.68;;;6.00;81.60;;;;;;5071400;28;20167;-58
2022/03/12 03:56:11;;;;;;;19.08;10.13;;;6.00;81.50;;;;;;5044242;28;20041;-57
2022/03/12 03:58:37;;;;;;;15.95;9.43;;;6.00;82.40;;;;;;5056596;28;20502;-57
2022/03/12 04:01:16;;;;;;;14.18;8.82;;;5.90;83.80;;;;;;5071837;28;20070;-56
2022/03/12 04:03:51;;;;;;;17.55;9.77;;;5.90;87.00;;;;;;5061342;28;20804;-58
2022/03/12 04:06:21;;;;;;;19.08;10.15;;;5.90;86.40;;;;;;5054555;28;20028;-58
2022/03/12 04:08:49;;;;;;;17.60;9.32;;;5.90;87.40;;;;;;5063151;28;20108;-58
2022/03/12 04:11:22;;;;;;;17.95;9.27;;;6.00;84.10;;;;;;5071594;28;20123;-57
2022/03/12 04:13:50;;;;;;;15.85;9.60;;;6.00;85.30;;;;;;5049090;28;20041;-58
2022/03/12 04:16:17;;;;;;;15.95;9.30;;;6.00;85.70;;;;;;5059020;28;20044;-58
2022/03/12 04:18:45;;;;;;;16.40;9.75;;;6.00;84.30;;;;;;5068766;28;20474;-58
2022/03/12 04:21:15;;;;;;;18.38;9.93;;;6.00;85.70;;;;;;5056906;28;20043;-58
2022/03/12 04:23:45;;;;;;;15.60;9.65;;;6.00;85.30;;;;;;5061533;28;20041;-56
2022/03/12 04:26:11;;;;;;;17.65;9.05;;;6.00;86.10;;;;;;5064273;28;20040;-56
2022/03/12 04:28:38;;;;;;;17.70;9.60;;;6.00;86.20;;;;;;5071235;28;20067;-58
2022/03/12 04:31:05;;;;;;;16.33;9.93;;;6.00;86.80;;;;;;5057412;28;20032;-57
2022/03/12 04:33:32;;;;;;;18.90;9.15;;;6.00;87.10;;;;;;5059450;28;20848;-57
2022/03/12 04:35:58;;;;;;;20.30;9.85;;;6.00;85.70;;;;;;5052991;28;20126;-57
2022/03/12 04:38:25;;;;;;;18.92;9.70;;;6.00;86.00;;;;;;5046549;28;20555;-58
2022/03/12 04:40:51;;;;;;;22.77;9.60;;;6.10;85.80;;;;;;5061012;28;20120;-58
2022/03/12 04:43:17;;;;;;;16.25;9.32;;;6.10;84.90;;;;;;5064831;28;20048;-57
2022/03/12 04:45:45;;;;;;;21.52;9.60;;;6.10;85.60;;;;;;5024626;28;20139;-58
2022/03/12 04:48:13;;;;;;;18.50;9.98;;;6.10;85.40;;;;;;5062035;28;20033;-58
2022/03/12 04:50:39;;;;;;;18.45;9.90;;;6.00;85.90;;;;;;5070753;28;20043;-57
2022/03/12 04:53:04;;;;;;;17.40;9.52;;;6.00;84.30;;;;;;5057562;28;20041;-58
2022/03/12 04:55:30;;;;;;;14.18;9.15;;;6.10;83.40;;;;;;5045830;28;20036;-58
2022/03/12 04:57:56;;;;;;;14.73;8.93;;;6.10;82.80;;;;;;5056675;28;20041;-56
2022/03/12 05:00:27;;;;;;;15.90;9.48;;;6.10;83.40;;;;;;5057394;28;20603;-57
2022/03/12 05:03:03;;;;;;;15.65;9.35;;;6.10;83.70;;;;;;5060226;28;20048;-58
2022/03/12 05:05:29;;;;;;;16.80;9.82;;;6.10;84.80;;;;;;5070384;28;20029;-57
2022/03/12 05:07:59;;;;;;;17.88;9.98;;;6.00;84.00;;;;;;5030800;28;20400;-57
2022/03/12 05:10:26;;;;;;;16.08;9.07;;;6.00;84.10;;;;;;5044506;28;20500;-58
2022/03/12 05:12:57;;;;;;;16.40;9.38;;;6.00;84.20;;;;;;5046167;28;20037;-58
2022/03/12 05:15:23;;;;;;;15.57;9.57;;;5.90;86.50;;;;;;5059392;28;20033;-58
2022/03/12 05:17:50;;;;;;;16.50;10.20;;;5.80;86.00;;;;;;5061622;28;20041;-58
2022/03/12 05:20:25;;;;;;;16.80;9.73;;;5.70;86.90;;;;;;5069194;28;20037;-56
2022/03/12 05:22:52;;;;;;;20.90;10.20;;;5.70;88.30;;;;;;5050023;28;20048;-58
2022/03/12 05:25:19;;;;;;;22.25;10.32;;;5.60;87.10;;;;;;5054712;28;20037;-58
2022/03/12 05:27:47;;;;;;;17.65;8.80;;;5.60;87.40;;;;;;5021822;28;20191;-57
2022/03/12 05:30:13;;;;;;;17.65;9.45;;;5.60;88.80;;;;;;5059716;28;20029;-57
2022/03/12 05:32:39;;;;;;;16.63;10.00;;;5.50;88.00;;;;;;5066776;28;20048;-58
2022/03/12 05:35:06;;;;;;;18.38;9.85;;;5.50;88.20;;;;;;5069679;28;20042;-57
2022/03/12 05:37:32;;;;;;;14.05;9.07;;;5.50;89.30;;;;;;5047026;28;20415;-58
2022/03/12 05:39:58;;;;;;;18.40;10.00;;;5.50;89.10;;;;;;5056187;28;20044;-58
2022/03/12 05:42:23;;;;;;;15.68;9.70;;;5.50;89.80;;;;;;5040603;28;20057;-58
2022/03/12 05:44:50;;;;;;;19.80;10.10;;;5.50;89.80;;;;;;5042845;28;20073;-58
2022/03/12 05:47:17;;;;;;;14.98;8.95;;;5.60;90.10;;;;;;5053363;28;20075;-56
2022/03/12 05:49:43;;;;;;;14.40;9.55;;;5.60;90.40;;;;;;5067019;28;20033;-57
2022/03/12 05:52:09;;;;;;;16.20;10.02;;;5.70;90.00;;;;;;5052848;28;20048;-58
2022/03/12 05:54:36;;;;;;;15.32;9.48;;;5.70;89.20;;;;;;5034765;28;20080;-57
2022/03/12 05:57:02;;;;;;;18.33;9.88;;;5.70;89.30;;;;;;5041228;28;20390;-58
2022/03/12 05:59:27;;;;;;;16.60;9.57;;;5.70;89.20;;;;;;5058056;28;20076;-56
2022/03/12 06:01:53;;;;;;;14.73;9.57;;;5.70;89.30;;;;;;5035462;28;20483;-58
2022/03/12 06:04:25;;;;;;;16.67;10.02;;;5.70;91.00;;;;;;5041829;28;20676;-57
2022/03/12 06:06:52;;;;;;;16.73;9.95;;;5.70;90.30;;;;;;5045031;28;20076;-57
2022/03/12 06:09:18;;;;;;;18.73;9.93;;;5.70;90.50;;;;;;5045287;28;20171;-58
2022/03/12 06:11:44;;;;;;;17.23;9.55;;;5.80;90.50;;;;;;5038153;28;20037;-57
2022/03/12 06:14:14;;;;;;;17.80;9.93;;;5.80;90.70;;;;;;5049372;28;20444;-57
2022/03/12 06:16:39;;;;;;;16.40;9.80;;;5.80;90.80;;;;;;5058607;28;20042;-57
2022/03/12 06:19:07;;;;;;;17.20;9.75;;;5.80;91.10;;;;;;5041684;28;20037;-57
2022/03/12 06:21:32;;;;;;;16.88;10.35;;;5.90;90.70;;;;;;5042800;28;20041;-57
2022/03/12 06:24:00;;;;;;;21.15;9.45;;;5.90;90.50;;;;;;5045179;28;20614;-57
2022/03/12 06:26:27;;;;;;;18.60;9.88;;;5.90;90.30;;;;;;5034978;28;20119;-57
2022/03/12 06:28:53;;;;;;;17.20;9.82;;;6.00;90.30;;;;;;5037855;28;20037;-56
2022/03/12 06:31:19;;;;;;;19.02;10.00;;;6.00;88.90;;;;;;5045479;28;20031;-57
2022/03/12 06:33:45;;;;;;;17.33;9.95;;;6.10;88.50;;;;;;5040982;28;20037;-57
2022/03/12 06:36:12;;;;;;;16.40;9.50;;;6.10;89.60;;;;;;5044478;28;20036;-57
2022/03/12 06:38:38;;;;;;;16.13;10.20;;;6.10;90.10;;;;;;5057061;28;20063;-57
2022/03/12 06:41:04;;;;;;;18.27;9.55;;;6.10;89.00;;;;;;5056865;28;20034;-58
2022/03/12 06:43:31;;;;;;;17.42;9.98;;;6.20;88.40;;;;;;5037760;28;20052;-57
2022/03/12 06:45:59;;;;;;;17.95;10.35;;;6.20;89.60;;;;;;5040355;28;20040;-57
2022/03/12 06:48:25;;;;;;;18.17;9.60;;;6.20;90.00;;;;;;5038686;28;20041;-58
2022/03/12 06:50:52;;;;;;;17.08;9.68;;;6.30;88.70;;;;;;5040565;28;20041;-56
2022/03/12 06:53:18;;;;;;;20.08;10.18;;;6.30;89.40;;;;;;5037058;28;20091;-58
2022/03/12 06:55:44;;;;;;;16.58;10.05;;;6.30;89.40;;;;;;5053095;28;20075;-56
2022/03/12 06:58:10;;;;;;;21.17;10.10;;;6.30;89.00;;;;;;5021863;28;20047;-57
2022/03/12 07:00:36;;;;;;;16.73;9.48;;;6.30;90.50;;;;;;5034617;28;20037;-58
2022/03/12 07:03:02;;;;;;;17.35;10.10;;;6.30;89.20;;;;;;5041893;28;20133;-58
2022/03/12 07:05:28;;;;;;;18.02;9.88;;;6.30;90.00;;;;;;5045113;28;20695;-58
2022/03/12 07:07:55;;;;;;;15.20;9.20;;;6.40;89.40;;;;;;5036806;28;20048;-55
2022/03/12 07:10:21;;;;;;;19.48;10.05;;;6.40;89.10;;;;;;5054551;28;20036;-52
2022/03/12 07:12:48;;;;;;;15.65;9.57;;;6.30;90.10;;;;;;5055199;28;20167;-56
2022/03/12 07:15:16;;;;;;;15.30;9.52;;;6.30;89.20;;;;;;5045051;28;20049;-57
2022/03/12 07:17:42;;;;;;;18.10;10.18;;;6.30;89.60;;;;;;5038728;28;20420;-59
2022/03/12 07:20:11;;;;;;;16.85;9.77;;;6.30;89.30;;;;;;5042044;28;20114;-59
2022/03/12 07:22:38;;;;;;;21.17;10.05;;;6.30;89.70;;;;;;5045943;28;20678;-61
2022/03/12 07:25:05;;;;;;;17.27;10.20;;;6.30;89.30;;;;;;5033425;28;20139;-61
2022/03/12 07:27:31;;;;;;;17.63;10.00;;;6.30;90.50;;;;;;5039866;28;20037;-61
2022/03/12 07:29:56;;;;;;;21.80;10.60;;;6.40;90.20;;;;;;5047639;28;20094;-61
2022/03/12 07:32:22;;;;;;;19.17;9.73;;;6.40;89.60;;;;;;5037746;28;20044;-61
2022/03/12 07:34:48;;;;;;;16.85;9.57;;;6.50;90.30;;;;;;5045285;28;20040;-61
2022/03/12 07:37:13;;;;;;;17.85;10.65;;;6.70;90.00;;;;;;5042204;28;20719;-61
2022/03/12 07:39:39;;;;;;;20.02;10.13;;;6.80;89.90;;;;;;5046273;28;20055;-61
2022/03/12 07:42:06;;;;;;;18.05;10.85;;;6.90;91.00;;;;;;5036039;28;20055;-61
2022/03/12 07:44:31;;;;;;;20.38;10.50;;;7.10;90.80;;;;;;5046971;28;20037;-61
2022/03/12 07:46:57;;;;;;;24.02;10.88;;;7.20;89.00;;;;;;5051584;28;20117;-61
2022/03/12 07:49:24;;;;;;;19.25;10.60;;;7.30;90.30;;;;;;5047116;28;20396;-61
2022/03/12 07:51:50;;;;;;;17.45;10.35;;;7.40;91.10;;;;;;5057844;28;20130;-61
2022/03/12 07:54:16;;;;;;;18.80;9.98;;;7.50;87.90;;;;;;5067219;28;20679;-61
2022/03/12 07:56:42;;;;;;;20.63;10.80;;;7.60;85.40;;;;;;5055371;28;20033;-61
2022/03/12 07:59:08;;;;;;;20.98;11.02;;;7.70;88.30;;;;;;5044519;28;20044;-61
2022/03/12 08:01:34;;;;;;;19.88;10.93;;;7.80;88.30;;;;;;5062073;28;20045;-61
2022/03/12 08:04:01;;;;;;;16.65;9.93;;;8.00;87.30;;;;;;5058238;28;20052;-61
2022/03/12 08:06:27;;;;;;;16.83;8.68;;;8.00;89.00;;;;;;5067717;28;20029;-61
2022/03/12 08:08:53;;;;;;;18.63;9.90;;;8.10;89.90;;;;;;5051684;28;20107;-61
2022/03/12 08:11:25;;;;;;;20.15;11.25;;;8.20;87.80;;;;;;5044937;28;20029;-61
2022/03/12 08:13:56;;;;;;;18.25;10.93;;;8.30;87.50;;;;;;5039410;28;20496;-61
2022/03/12 08:16:22;;;;;;;22.27;12.30;;;8.30;85.30;;;;;;5049207;22;20130;-61
2022/03/12 08:18:48;;;;;;;19.27;10.75;;;8.40;88.70;;;;;;5036762;28;20483;-61
2022/03/12 08:21:15;;;;;;;24.05;11.88;;;8.50;88.30;;;;;;5037444;28;20033;-61
2022/03/12 08:23:41;;;;;;;20.20;11.05;;;8.50;88.70;;;;;;5025631;28;20052;-61
2022/03/12 08:26:06;;;;;;;19.55;11.23;;;8.60;88.90;;;;;;5038834;28;20033;-61
2022/03/12 08:28:34;;;;;;;20.52;11.88;;;8.70;90.90;;;;;;5047382;28;20037;-61
2022/03/12 08:31:03;;;;;;;20.52;11.48;;;8.90;88.70;;;;;;5031666;28;20076;-61
2022/03/12 08:33:29;;;;;;;17.33;10.30;;;9.00;88.30;;;;;;5017492;28;20030;-61
2022/03/12 08:35:56;;;;;;;17.20;11.02;;;9.10;90.00;;;;;;5016010;28;20048;-61
2022/03/12 08:38:22;;;;;;;26.08;11.30;;;9.20;88.10;;;;;;5029947;28;20076;-61
2022/03/12 08:40:48;;;;;;;20.48;11.65;;;9.30;88.90;;;;;;5030438;28;20129;-61
2022/03/12 08:43:14;;;;;;;16.80;11.00;;;9.30;88.00;;;;;;5030327;28;20080;-61
2022/03/12 08:45:39;;;;;;;21.10;10.50;;;9.40;89.50;;;;;;5021741;28;20100;-61
2022/03/12 08:48:05;;;;;;;17.73;11.23;;;9.50;88.80;;;;;;5017355;28;20049;-61
2022/03/12 08:50:32;;;;;;;18.83;10.85;;;9.60;90.20;;;;;;5035053;28;20037;-61
2022/03/12 08:52:58;;;;;;;22.88;11.73;;;9.70;90.90;;;;;;5031021;28;20119;-61
2022/03/12 08:55:25;;;;;;;16.67;11.15;;;9.80;91.00;;;;;;5024449;28;20113;-61
2022/03/12 08:57:52;;;;;;;19.27;11.32;;;10.00;90.30;;;;;;5019549;28;20100;-61
2022/03/12 09:00:19;;;;;;;16.05;10.60;;;10.00;91.30;;;;;;5029428;28;20041;-61
2022/03/12 09:02:46;;;;;;;22.48;10.63;;;10.10;91.60;;;;;;5032121;28;20037;-61
2022/03/12 09:05:13;;;;;;;19.92;12.00;;;10.20;91.40;;;;;;5023668;28;20117;-61
2022/03/12 09:07:41;;;;;;;18.77;10.57;;;10.40;92.20;;;;;;5021448;28;20108;-61
2022/03/12 09:10:07;;;;;;;17.13;10.27;;;10.50;92.30;;;;;;5027684;28;20499;-61
2022/03/12 09:12:32;;;;;;;18.45;10.60;;;10.60;91.60;;;;;;5020459;28;20064;-61
2022/03/12 09:14:58;;;;;;;16.98;10.93;;;10.70;91.80;;;;;;5027034;28;20044;-61
2022/03/12 09:17:23;;;;;;;20.58;10.45;;;10.80;92.90;;;;;;5025180;28;20491;-61
2022/03/12 09:19:49;;;;;;;17.45;10.90;;;10.80;92.30;;;;;;5018799;28;20458;-61
2022/03/12 09:22:14;;;;;;;20.38;10.98;;;11.00;92.70;;;;;;5011628;28;20145;-61
2022/03/12 09:24:40;;;;;;;16.83;10.55;;;11.00;92.60;;;;;;5035658;28;20128;-61
2022/03/12 09:27:09;;;;;;;17.70;11.75;;;11.10;92.30;;;;;;5049517;28;20048;-61
2022/03/12 09:29:35;;;;;;;16.33;10.40;;;11.10;93.10;;;;;;5036671;28;20041;-60
2022/03/12 09:32:03;;;;;;;19.67;11.38;;;11.20;92.70;;;;;;5037146;28;20084;-61
2022/03/12 09:34:29;;;;;;;22.67;12.20;;;11.30;93.20;;;;;;5044756;28;20041;-61
2022/03/12 09:36:55;;;;;;;20.70;11.40;;;11.40;93.10;;;;;;5028094;28;20037;-58
2022/03/12 09:39:21;;;;;;;17.75;11.38;;;11.50;93.00;;;;;;5039807;28;20087;-61
2022/03/12 09:41:47;;;;;;;18.00;11.35;;;11.60;92.60;;;;;;5041307;28;20091;-61
2022/03/12 09:44:12;;;;;;;19.13;11.65;;;11.70;92.40;;;;;;5049400;28;20041;-61
2022/03/12 09:46:38;;;;;;;19.23;11.82;;;11.80;94.30;;;;;;5019656;28;20048;-61
2022/03/12 09:49:05;;;;;;;20.77;11.98;;;11.90;92.80;;;;;;5029063;28;20068;-61
2022/03/12 09:51:31;;;;;;;21.67;11.48;;;11.90;93.20;;;;;;5025202;28;20033;-61
2022/03/12 09:53:58;;;;;;;19.77;11.32;;;12.00;93.40;;;;;;5014274;28;20527;-61
2022/03/12 09:56:25;;;;;;;17.00;11.15;;;12.10;93.30;;;;;;5021737;28;20664;-61
2022/03/12 09:58:51;;;;;;;18.02;12.10;;;12.20;93.20;;;;;;5037074;28;20048;-61
2022/03/12 10:01:17;;;;;;;17.85;11.85;;;12.20;93.20;;;;;;5028802;28;20038;-61
2022/03/12 10:03:43;;;;;;;18.02;11.80;;;12.30;93.10;;;;;;5021400;28;20088;-61
2022/03/12 10:06:10;;;;;;;19.45;12.18;;;12.40;93.70;;;;;;5034535;28;20037;-61
2022/03/12 10:08:36;;;;;;;18.27;11.88;;;12.40;93.20;;;;;;5040420;28;20060;-61
2022/03/12 10:11:02;;;;;;;19.73;11.38;;;12.50;94.70;;;;;;5028374;28;20041;-61
2022/03/12 10:13:28;;;;;;;19.23;11.15;;;12.50;93.40;;;;;;5032319;28;20080;-61
2022/03/12 10:15:53;;;;;;;18.67;11.98;;;12.60;93.60;;;;;;5040325;28;20068;-61
2022/03/12 10:18:20;;;;;;;19.38;11.63;;;12.60;94.20;;;;;;5037670;28;20045;-61
2022/03/12 10:20:47;;;;;;;18.02;12.00;;;12.60;94.40;;;;;;5018746;28;20053;-61
2022/03/12 10:23:13;;;;;;;18.67;12.00;;;12.70;94.90;;;;;;5040160;28;20091;-61
2022/03/12 10:25:39;;;;;;;20.42;11.88;;;12.80;94.90;;;;;;5047594;28;20045;-61
2022/03/12 10:28:04;;;;;;;18.27;11.27;;;12.90;94.70;;;;;;5033624;28;20519;-61
2022/03/12 10:30:30;;;;;;;22.83;12.25;;;12.90;95.60;;;;;;5037156;28;20630;-61
2022/03/12 10:32:56;;;;;;;17.48;10.98;;;12.90;95.50;;;;;;5047660;28;20041;-61
2022/03/12 10:35:22;;;;;;;16.25;10.85;;;12.90;95.60;;;;;;5031709;28;20038;-61
2022/03/12 10:37:49;;;;;;;14.60;10.98;;;12.80;97.20;;;;;;5039498;28;20033;-61
2022/03/12 10:40:18;;;;;;;17.27;10.75;;;12.70;98.20;;;;;;5042080;28;20049;-61
2022/03/12 10:42:46;;;;;;;17.35;11.02;;;12.70;98.20;;;;;;5048565;28;20069;-61
2022/03/12 10:45:15;;;;;;;17.05;10.77;;;12.80;99.40;;;;;;5027571;28;20044;-61
2022/03/12 10:47:45;;;;;;;18.25;11.05;;;12.80;98.20;;;;;;5034857;28;20041;-61
2022/03/12 10:50:22;;;;;;;15.13;10.63;;;12.80;97.70;;;;;;5048547;28;20033;-61
2022/03/12 10:52:53;;;;;;;19.60;10.93;;;12.90;99.10;;;;;;5042884;28;20061;-61
2022/03/12 10:55:28;;;;;;;16.95;11.52;;;13.00;98.30;;;;;;5039765;28;20115;-61
2022/03/12 10:58:12;;;;;;;15.55;10.23;;;13.20;99.10;;;;;;5028952;28;20491;-61
2022/03/12 11:00:45;;;;;;;15.10;10.32;;;13.10;99.00;;;;;;5020949;28;20084;-61
2022/03/12 11:03:14;;;;;;;17.35;11.10;;;13.00;99.00;;;;;;5026157;28;20116;-61
2022/03/12 11:05:43;;;;;;;17.17;10.70;;;13.00;98.20;;;;;;5037099;28;20098;-61
2022/03/12 11:08:15;;;;;;;14.55;9.95;;;13.00;98.50;;;;;;5040721;28;20043;-60
2022/03/12 11:10:47;;;;;;;14.57;9.73;;;13.00;99.90;;;;;;5042327;28;20034;-61
2022/03/12 11:13:27;;;;;;;17.15;9.52;;;13.10;99.30;;;;;;5032167;28;20428;-61
2022/03/12 11:16:24;;;;;;;15.98;10.00;;;13.30;99.80;;;;;;5039496;28;20044;-61
2022/03/12 11:18:53;;;;;;;13.48;8.98;;;13.30;99.90;;;;;;5034638;28;20138;-61
2022/03/12 11:21:39;;;;;;;14.55;10.07;;;13.40;99.90;;;;;;5039604;28;20114;-61
2022/03/12 11:24:08;;;;;;;15.30;10.65;;;13.30;99.90;;;;;;5029746;28;20761;-61
2022/03/12 11:26:51;;;;;;;16.92;9.93;;;13.30;99.30;;;;;;5014712;28;20038;-61
2022/03/12 11:29:19;;;;;;;17.80;9.93;;;13.30;99.90;;;;;;5030424;28;20037;-61
2022/03/12 11:31:46;;;;;;;16.23;9.05;;;13.50;99.40;;;;;;5045556;28;20099;-61
2022/03/12 11:34:23;;;;;;;17.27;9.95;;;13.60;99.40;;;;;;5020458;28;20043;-61
2022/03/12 11:36:55;;;;;;;15.25;9.85;;;13.60;99.80;;;;;;5039567;28;20051;-61
2022/03/12 11:39:30;;;;;;;17.77;9.75;;;13.70;99.80;;;;;;5042145;28;20491;-61
2022/03/12 11:42:07;;;;;;;17.25;10.32;;;13.70;99.40;;;;;;5035970;28;20044;-61
2022/03/12 11:44:34;;;;;;;14.85;9.57;;;13.70;99.40;;;;;;5024835;28;20179;-61
2022/03/12 11:47:00;;;;;;;16.15;9.45;;;13.70;98.80;;;;;;5040975;28;20045;-61
2022/03/12 11:49:27;;;;;;;13.70;8.95;;;13.80;98.70;;;;;;5042470;28;20033;-61
2022/03/12 11:51:53;;;;;;;18.95;9.00;;;13.90;98.80;;;;;;5011587;28;20558;-61
2022/03/12 11:54:19;;;;;;;16.27;8.38;;;14.20;98.80;;;;;;5035311;28;20045;-61
2022/03/12 11:56:45;;;;;;;12.95;8.48;;;14.30;99.10;;;;;;5035629;28;20339;-61
2022/03/12 11:59:10;;;;;;;15.75;9.43;;;14.40;98.40;;;;;;5023621;28;20522;-61
2022/03/12 12:01:37;;;;;;;14.00;9.48;;;14.50;98.40;;;;;;5030973;28;20041;-61
2022/03/12 12:04:04;;;;;;;13.23;9.23;;;14.50;97.80;;;;;;5039334;28;20041;-61
2022/03/12 12:06:30;;;;;;;13.23;8.38;;;14.20;96.50;;;;;;5036888;28;20125;-61
2022/03/12 12:08:57;;;;;;;12.65;9.10;;;14.20;97.50;;;;;;5007079;28;20449;-61
2022/03/12 12:11:22;;;;;;;13.85;9.05;;;14.30;97.70;;;;;;5033369;28;20110;-61
2022/03/12 12:13:48;;;;;;;15.45;9.30;;;14.40;97.50;;;;;;5042359;28;20160;-61
2022/03/12 12:16:16;;;;;;;15.20;9.38;;;14.50;97.50;;;;;;5046725;28;20129;-61
2022/03/12 12:18:41;;;;;;;14.55;9.45;;;14.70;97.70;;;;;;5030923;28;20053;-61
2022/03/12 12:21:16;;;;;;;14.70;9.15;;;14.80;97.20;;;;;;5042601;28;20029;-61
2022/03/12 12:23:42;;;;;;;14.60;9.05;;;14.80;95.40;;;;;;5043369;28;20187;-61
2022/03/12 12:26:09;;;;;;;12.30;8.63;;;14.70;96.20;;;;;;5040800;28;20131;-61
2022/03/12 12:28:52;;;;;;;13.77;9.07;;;14.70;96.50;;;;;;5042421;28;20516;-61
2022/03/12 12:31:25;;;;;;;13.43;9.23;;;14.60;94.50;;;;;;5038594;28;20037;-61
2022/03/12 12:33:54;;;;;;;13.57;9.23;;;14.50;96.50;;;;;;5018153;28;20685;-61
2022/03/12 12:36:22;;;;;;;13.30;9.50;;;14.60;96.70;;;;;;5042601;28;20159;-61
2022/03/12 12:39:08;;;;;;;13.50;9.27;;;14.90;96.90;;;;;;5031671;28;20033;-61
2022/03/12 12:41:54;;;;;;;13.93;10.27;;;15.10;96.80;;;;;;4993304;28;20045;-61
2022/03/12 12:44:44;;;;;;;16.23;10.18;;;15.20;95.70;;;;;;5032790;28;20056;-61